createdAt,value
2022-07-30T00:00:38.182Z,99.90
2022-07-30T00:01:41.101Z,99.90
2022-07-30T00:02:43.207Z,99.90
2022-07-30T00:03:45.164Z,99.90
2022-07-30T00:04:47.150Z,99.90
2022-07-30T00:05:49.747Z,99.90
2022-07-30T00:06:51.672Z,99.90
2022-07-30T00:07:53.644Z,99.90
2022-07-30T00:08:55.611Z,99.90
2022-07-30T00:09:57.506Z,99.90
2022-07-30T00:10:59.298Z,99.90
2022-07-30T00:12:01.693Z,99.90
2022-07-30T00:13:03.819Z,99.90
2022-07-30T00:14:06.056Z,99.90
2022-07-30T00:15:08.688Z,99.90
2022-07-30T00:16:11.761Z,99.90
2022-07-30T00:17:13.653Z,99.90
2022-07-30T00:18:17.072Z,99.90
2022-07-30T00:19:19.235Z,99.90
2022-07-30T00:20:27.965Z,99.90
2022-07-30T00:21:38.506Z,99.90
2022-07-30T00:22:41.407Z,99.90
2022-07-30T00:23:43.553Z,99.90
2022-07-30T00:25:03.644Z,99.90
2022-07-30T00:26:05.375Z,99.90
2022-07-30T00:27:09.305Z,99.90
2022-07-30T00:28:11.075Z,99.90
2022-07-30T00:29:13.068Z,99.90
2022-07-30T00:30:15.371Z,99.90
2022-07-30T00:31:17.429Z,99.90
2022-07-30T00:32:19.426Z,99.90
2022-07-30T00:33:21.512Z,99.90
2022-07-30T00:34:23.438Z,99.90
2022-07-30T00:35:25.324Z,99.90
2022-07-30T00:36:29.574Z,99.90
2022-07-30T00:37:31.544Z,99.90
2022-07-30T00:38:33.352Z,99.90
2022-07-30T00:39:35.326Z,99.90
2022-07-30T00:40:37.096Z,99.90
2022-07-30T00:41:59.278Z,99.90
2022-07-30T00:43:01.190Z,99.90
2022-07-30T00:44:02.941Z,99.90
2022-07-30T00:45:06.626Z,99.90
2022-07-30T00:46:09.223Z,99.90
2022-07-30T00:47:11.192Z,99.90
2022-07-30T00:48:14.348Z,99.90
2022-07-30T00:49:16.592Z,99.90
2022-07-30T00:50:18.373Z,99.90
2022-07-30T00:51:20.508Z,99.90
2022-07-30T00:52:22.225Z,99.90
2022-07-30T00:53:25.072Z,99.90
2022-07-30T00:54:27.196Z,99.90
2022-07-30T00:55:29.577Z,99.90
2022-07-30T00:56:31.451Z,99.90
2022-07-30T00:57:33.309Z,99.90
2022-07-30T00:58:36.761Z,99.90
2022-07-30T00:59:38.479Z,99.90
2022-07-30T01:00:40.414Z,99.90
2022-07-30T01:01:42.716Z,99.90
2022-07-30T01:02:44.819Z,99.90
2022-07-30T01:03:46.732Z,99.90
2022-07-30T01:04:48.817Z,99.90
2022-07-30T01:05:51.467Z,99.90
2022-07-30T01:06:53.216Z,99.90
2022-07-30T01:07:55.029Z,99.90
2022-07-30T01:08:57.205Z,99.90
2022-07-30T01:09:59.011Z,99.90
2022-07-30T01:11:01.019Z,99.90
2022-07-30T01:12:03.390Z,99.90
2022-07-30T01:13:06.569Z,99.90
2022-07-30T01:14:10.086Z,99.90
2022-07-30T01:15:12.807Z,99.90
2022-07-30T01:16:15.214Z,99.90
2022-07-30T01:17:17.129Z,99.90
2022-07-30T01:18:19.292Z,99.90
2022-07-30T01:19:43.546Z,99.90
2022-07-30T01:21:00.799Z,99.90
2022-07-30T01:22:20.259Z,99.90
2022-07-30T01:23:28.062Z,99.90
2022-07-30T01:24:40.917Z,99.90
2022-07-30T01:26:04.506Z,99.90
2022-07-30T01:27:07.991Z,99.90
2022-07-30T01:28:13.819Z,99.90
2022-07-30T01:29:21.158Z,99.90
2022-07-30T01:30:27.296Z,99.90
2022-07-30T01:32:42.541Z,99.90
2022-07-30T01:33:48.581Z,99.90
2022-07-30T01:34:51.017Z,99.90
2022-07-30T01:35:54.396Z,99.90
2022-07-30T01:36:59.144Z,99.90
2022-07-30T01:38:04.232Z,99.90
2022-07-30T01:39:07.089Z,99.90
2022-07-30T01:40:09.619Z,99.90
2022-07-30T01:41:12.823Z,99.90
2022-07-30T01:42:15.026Z,99.90
2022-07-30T01:43:18.929Z,99.90
2022-07-30T01:44:24.150Z,99.90
2022-07-30T01:45:28.862Z,99.90
2022-07-30T01:46:31.591Z,99.90
2022-07-30T01:47:35.355Z,99.90
2022-07-30T01:48:41.063Z,99.90
2022-07-30T01:49:46.489Z,99.90
2022-07-30T01:50:51.116Z,99.90
2022-07-30T01:51:54.953Z,99.90
2022-07-30T01:52:59.153Z,99.90
2022-07-30T01:54:01.489Z,99.90
2022-07-30T01:55:04.578Z,99.90
2022-07-30T01:56:16.647Z,99.90
2022-07-30T01:57:21.152Z,99.90
2022-07-30T01:58:26.852Z,99.90
2022-07-30T01:59:30.131Z,99.90
2022-07-30T02:00:36.693Z,99.90
2022-07-30T02:01:38.518Z,99.90
2022-07-30T02:02:41.460Z,99.90
2022-07-30T02:03:43.391Z,99.90
2022-07-30T02:04:45.321Z,99.90
2022-07-30T02:05:52.853Z,99.90
2022-07-30T02:07:04.571Z,99.90
2022-07-30T02:08:11.081Z,99.90
2022-07-30T02:09:16.278Z,99.90
2022-07-30T02:10:45.054Z,99.90
2022-07-30T02:12:09.103Z,99.90
2022-07-30T02:13:14.029Z,99.90
2022-07-30T02:14:23.882Z,99.90
2022-07-30T02:15:28.389Z,99.90
2022-07-30T02:16:37.978Z,99.90
2022-07-30T02:17:45.178Z,99.90
2022-07-30T02:19:04.327Z,99.90
2022-07-30T02:20:10.010Z,99.90
2022-07-30T02:21:13.599Z,99.90
2022-07-30T02:22:18.324Z,99.90
2022-07-30T02:23:22.383Z,99.90
2022-07-30T02:24:28.469Z,99.90
2022-07-30T02:25:34.537Z,99.90
2022-07-30T02:26:38.641Z,99.90
2022-07-30T02:27:45.091Z,99.90
2022-07-30T02:28:52.945Z,99.90
2022-07-30T02:29:57.729Z,99.90
2022-07-30T02:31:01.561Z,99.90
2022-07-30T02:32:09.164Z,99.90
2022-07-30T02:33:12.853Z,99.90
2022-07-30T02:34:16.822Z,99.90
2022-07-30T02:35:22.196Z,99.90
2022-07-30T02:36:25.370Z,99.90
2022-07-30T02:37:43.329Z,99.90
2022-07-30T02:38:47.468Z,99.90
2022-07-30T02:39:52.052Z,99.90
2022-07-30T02:40:57.694Z,99.90
2022-07-30T02:41:59.708Z,99.90
2022-07-30T02:43:01.948Z,99.90
2022-07-30T02:44:05.577Z,99.90
2022-07-30T02:45:08.412Z,99.90
2022-07-30T02:46:13.038Z,99.90
2022-07-30T02:47:16.685Z,99.90
2022-07-30T02:48:34.198Z,99.90
2022-07-30T02:49:39.675Z,99.90
2022-07-30T02:50:42.715Z,99.90
2022-07-30T02:51:47.633Z,99.90
2022-07-30T02:52:50.659Z,99.90
2022-07-30T02:53:54.842Z,99.90
2022-07-30T02:54:59.321Z,99.90
2022-07-30T02:56:03.420Z,99.90
2022-07-30T02:57:06.739Z,99.90
2022-07-30T02:58:10.626Z,99.90
2022-07-30T02:59:12.864Z,99.90
2022-07-30T03:00:15.104Z,99.90
2022-07-30T03:01:20.343Z,99.90
2022-07-30T03:02:26.500Z,99.90
2022-07-30T03:03:32.757Z,99.90
2022-07-30T03:04:36.409Z,99.90
2022-07-30T03:05:41.341Z,99.90
2022-07-30T03:06:44.960Z,99.90
2022-07-30T03:07:47.528Z,99.90
2022-07-30T03:08:49.891Z,99.90
2022-07-30T03:09:54.735Z,99.90
2022-07-30T03:10:57.366Z,99.90
2022-07-30T03:12:00.486Z,99.90
2022-07-30T03:13:06.103Z,99.90
2022-07-30T03:14:08.857Z,99.90
2022-07-30T03:15:12.170Z,99.90
2022-07-30T03:16:17.340Z,99.90
2022-07-30T03:17:21.934Z,99.90
2022-07-30T03:18:24.691Z,99.90
2022-07-30T03:19:31.158Z,99.90
2022-07-30T03:20:34.974Z,99.90
2022-07-30T03:21:38.656Z,99.90
2022-07-30T03:22:48.065Z,99.90
2022-07-30T03:23:51.282Z,99.90
2022-07-30T03:24:55.453Z,99.90
2022-07-30T03:26:01.233Z,99.90
2022-07-30T03:27:04.433Z,99.90
2022-07-30T03:28:07.516Z,99.90
2022-07-30T03:29:11.008Z,99.90
2022-07-30T03:30:13.447Z,99.90
2022-07-30T03:31:16.413Z,99.90
2022-07-30T03:32:19.189Z,99.90
2022-07-30T03:33:37.953Z,99.90
2022-07-30T03:34:42.593Z,99.90
2022-07-30T03:35:47.229Z,99.90
2022-07-30T03:36:50.130Z,99.90
2022-07-30T03:37:53.409Z,99.90
2022-07-30T03:38:56.034Z,99.90
2022-07-30T03:39:58.527Z,99.90
2022-07-30T03:41:00.775Z,99.90
2022-07-30T03:42:04.258Z,99.90
2022-07-30T03:43:32.261Z,99.90
2022-07-30T03:44:33.084Z,99.90
2022-07-30T03:45:36.248Z,99.90
2022-07-30T03:46:38.701Z,99.90
2022-07-30T03:47:42.156Z,99.90
2022-07-30T03:48:44.633Z,99.90
2022-07-30T03:49:46.577Z,99.90
2022-07-30T03:50:49.749Z,99.90
2022-07-30T03:51:53.407Z,99.90
2022-07-30T03:52:55.905Z,99.90
2022-07-30T03:53:57.802Z,99.90
2022-07-30T03:55:00.371Z,99.90
2022-07-30T03:56:03.531Z,99.90
2022-07-30T03:57:06.420Z,99.90
2022-07-30T03:58:08.216Z,99.90
2022-07-30T03:59:10.384Z,99.90
2022-07-30T04:00:15.641Z,99.90
2022-07-30T04:01:17.446Z,99.90
2022-07-30T04:02:19.466Z,99.90
2022-07-30T04:03:28.806Z,99.90
2022-07-30T04:04:31.012Z,99.90
2022-07-30T04:05:37.375Z,99.90
2022-07-30T04:06:43.199Z,99.90
2022-07-30T04:07:45.632Z,99.90
2022-07-30T04:08:49.029Z,99.90
2022-07-30T04:09:51.149Z,99.90
2022-07-30T04:10:53.064Z,99.90
2022-07-30T04:11:54.781Z,99.90
2022-07-30T04:12:56.778Z,99.90
2022-07-30T04:13:58.614Z,99.90
2022-07-30T04:15:00.452Z,99.90
2022-07-30T04:16:40.383Z,99.90
2022-07-30T04:17:47.899Z,99.90
2022-07-30T04:18:53.306Z,99.90
2022-07-30T04:20:01.457Z,99.90
2022-07-30T04:21:05.580Z,99.90
2022-07-30T04:22:09.100Z,99.90
2022-07-30T04:23:12.021Z,99.90
2022-07-30T04:24:15.883Z,99.90
2022-07-30T04:25:24.622Z,99.90
2022-07-30T04:26:26.811Z,99.90
2022-07-30T04:27:30.547Z,99.90
2022-07-30T04:28:32.868Z,99.90
2022-07-30T04:29:35.299Z,99.90
2022-07-30T04:30:37.472Z,99.90
2022-07-30T04:31:40.933Z,99.90
2022-07-30T04:32:43.465Z,99.90
2022-07-30T04:33:46.520Z,99.90
2022-07-30T04:34:53.656Z,99.90
2022-07-30T04:35:55.507Z,99.90
2022-07-30T04:36:57.273Z,99.90
2022-07-30T04:38:00.457Z,99.90
2022-07-30T04:39:02.203Z,99.90
2022-07-30T04:40:04.355Z,99.90
2022-07-30T04:41:06.220Z,99.90
2022-07-30T04:42:08.101Z,99.90
2022-07-30T04:43:09.861Z,99.90
2022-07-30T04:44:11.711Z,99.90
2022-07-30T04:45:13.912Z,99.90
2022-07-30T04:46:15.879Z,99.90
2022-07-30T04:47:18.490Z,99.90
2022-07-30T04:48:20.649Z,99.90
2022-07-30T04:49:23.362Z,99.90
2022-07-30T04:50:27.573Z,99.90
2022-07-30T04:51:34.211Z,99.90
2022-07-30T04:52:37.022Z,99.90
2022-07-30T04:53:40.020Z,99.90
2022-07-30T04:54:50.195Z,99.90
2022-07-30T04:55:53.133Z,99.90
2022-07-30T04:56:55.085Z,99.90
2022-07-30T04:57:57.748Z,99.90
2022-07-30T04:59:00.253Z,99.90
2022-07-30T05:00:02.245Z,99.90
2022-07-30T05:01:04.474Z,99.90
2022-07-30T05:02:07.716Z,99.90
2022-07-30T05:03:13.502Z,99.90
2022-07-30T05:04:16.281Z,99.90
2022-07-30T05:05:19.395Z,99.90
2022-07-30T05:06:22.278Z,99.90
2022-07-30T05:07:25.990Z,99.90
2022-07-30T05:08:28.246Z,99.90
2022-07-30T05:09:31.848Z,99.90
2022-07-30T05:10:33.656Z,99.90
2022-07-30T05:11:35.575Z,99.90
2022-07-30T05:12:37.658Z,99.90
2022-07-30T05:13:48.594Z,99.90
2022-07-30T05:14:50.418Z,99.90
2022-07-30T05:15:52.241Z,99.90
2022-07-30T05:16:54.976Z,99.90
2022-07-30T05:17:57.459Z,99.90
2022-07-30T05:18:59.511Z,99.90
2022-07-30T05:20:01.236Z,99.90
2022-07-30T05:21:04.462Z,99.90
2022-07-30T05:22:06.862Z,99.90
2022-07-30T05:23:08.796Z,99.90
2022-07-30T05:24:10.619Z,99.90
2022-07-30T05:25:16.008Z,99.90
2022-07-30T05:26:21.752Z,99.90
2022-07-30T05:27:29.618Z,99.90
2022-07-30T05:28:31.832Z,99.90
2022-07-30T05:29:34.208Z,99.90
2022-07-30T05:30:37.500Z,99.90
2022-07-30T05:31:43.602Z,99.90
2022-07-30T05:32:46.945Z,99.90
2022-07-30T05:33:48.903Z,99.90
2022-07-30T05:34:50.634Z,99.90
2022-07-30T05:35:53.191Z,99.90
2022-07-30T05:36:55.186Z,99.90
2022-07-30T05:37:56.919Z,99.90
2022-07-30T05:38:58.736Z,99.90
2022-07-30T05:40:03.189Z,99.90
2022-07-30T05:41:05.909Z,99.90
2022-07-30T05:42:27.691Z,99.90
2022-07-30T05:43:29.427Z,99.90
2022-07-30T05:44:31.494Z,99.90
2022-07-30T05:45:33.373Z,99.90
2022-07-30T05:46:35.618Z,99.90
2022-07-30T05:47:37.482Z,99.90
2022-07-30T05:48:39.431Z,99.90
2022-07-30T05:49:41.563Z,99.90
2022-07-30T05:50:44.022Z,99.90
2022-07-30T05:51:45.754Z,99.90
2022-07-30T05:52:47.733Z,99.90
2022-07-30T05:53:49.812Z,99.90
2022-07-30T05:54:51.663Z,99.90
2022-07-30T05:55:53.502Z,99.90
2022-07-30T05:56:55.231Z,99.90
2022-07-30T05:57:56.982Z,99.90
2022-07-30T05:58:58.751Z,99.90
2022-07-30T06:00:01.410Z,99.90
2022-07-30T06:01:03.353Z,99.90
2022-07-30T06:02:08.212Z,99.90
2022-07-30T06:03:09.957Z,99.90
2022-07-30T06:04:11.738Z,99.90
2022-07-30T06:05:13.741Z,99.90
2022-07-30T06:06:19.702Z,99.90
2022-07-30T06:07:24.451Z,99.90
2022-07-30T06:08:26.199Z,99.90
2022-07-30T06:09:36.431Z,99.90
2022-07-30T06:10:39.129Z,99.90
2022-07-30T06:11:41.058Z,99.90
2022-07-30T06:12:43.040Z,99.90
2022-07-30T06:13:44.909Z,99.90
2022-07-30T06:14:46.802Z,99.90
2022-07-30T06:15:48.791Z,99.90
2022-07-30T06:16:50.610Z,99.90
2022-07-30T06:18:01.987Z,99.90
2022-07-30T06:19:04.512Z,99.90
2022-07-30T06:20:06.669Z,99.90
2022-07-30T06:21:09.051Z,99.90
2022-07-30T06:22:10.811Z,99.90
2022-07-30T06:23:12.828Z,99.90
2022-07-30T06:24:14.956Z,99.90
2022-07-30T06:25:18.559Z,99.90
2022-07-30T06:26:20.683Z,99.10
2022-07-30T06:27:22.596Z,97.90
2022-07-30T06:28:39.932Z,97.00
2022-07-30T06:29:41.773Z,96.20
2022-07-30T06:30:45.997Z,96.10
2022-07-30T06:31:47.772Z,96.50
2022-07-30T06:32:49.731Z,95.50
2022-07-30T06:33:51.457Z,93.30
2022-07-30T06:34:59.964Z,91.90
2022-07-30T06:36:04.321Z,91.10
2022-07-30T06:37:06.131Z,90.00
2022-07-30T06:38:08.089Z,90.10
2022-07-30T06:39:09.979Z,89.60
2022-07-30T06:40:12.331Z,90.70
2022-07-30T06:41:15.726Z,91.50
2022-07-30T06:42:17.873Z,91.90
2022-07-30T06:43:21.405Z,92.80
2022-07-30T06:44:23.577Z,93.20
2022-07-30T06:45:25.413Z,93.40
2022-07-30T06:46:27.277Z,93.50
2022-07-30T06:47:29.586Z,93.60
2022-07-30T06:48:31.986Z,94.00
2022-07-30T06:49:35.727Z,94.30
2022-07-30T06:50:37.535Z,94.00
2022-07-30T06:51:39.664Z,92.80
2022-07-30T06:52:41.439Z,92.50
2022-07-30T06:53:45.742Z,92.60
2022-07-30T06:54:50.321Z,92.70
2022-07-30T06:55:53.006Z,92.00
2022-07-30T06:56:59.542Z,91.40
2022-07-30T06:58:02.287Z,91.50
2022-07-30T06:59:04.154Z,91.60
2022-07-30T07:00:07.492Z,92.00
2022-07-30T07:01:10.931Z,92.50
2022-07-30T07:02:13.361Z,92.60
2022-07-30T07:03:15.161Z,92.90
2022-07-30T07:04:16.972Z,93.10
2022-07-30T07:05:20.497Z,93.60
2022-07-30T07:06:22.268Z,93.40
2022-07-30T07:07:40.750Z,93.20
2022-07-30T07:08:43.379Z,93.30
2022-07-30T07:09:45.346Z,93.10
2022-07-30T07:10:47.167Z,93.00
2022-07-30T07:11:49.029Z,92.70
2022-07-30T07:12:50.785Z,92.50
2022-07-30T07:13:52.575Z,92.30
2022-07-30T07:14:54.349Z,91.90
2022-07-30T07:15:57.641Z,91.30
2022-07-30T07:17:00.511Z,90.30
2022-07-30T07:18:02.839Z,88.40
2022-07-30T07:19:08.419Z,86.00
2022-07-30T07:20:20.855Z,84.00
2022-07-30T07:21:31.747Z,81.40
2022-07-30T07:22:36.727Z,77.80
2022-07-30T07:23:42.903Z,75.80
2022-07-30T07:24:45.647Z,73.90
2022-07-30T07:25:47.605Z,72.10
2022-07-30T07:26:49.484Z,71.80
2022-07-30T07:28:10.920Z,74.50
2022-07-30T07:29:28.736Z,77.00
2022-07-30T07:30:31.158Z,79.40
2022-07-30T07:32:06.420Z,79.70
2022-07-30T07:32:56.891Z,79.70
2022-07-30T07:33:58.756Z,81.70
2022-07-30T07:35:00.756Z,82.00
2022-07-30T07:36:21.635Z,81.90
2022-07-30T07:37:23.561Z,81.00
2022-07-30T07:38:25.376Z,80.80
2022-07-30T07:39:27.158Z,80.60
2022-07-30T07:40:29.099Z,80.80
2022-07-30T07:41:48.860Z,81.60
2022-07-30T07:42:51.298Z,81.00
2022-07-30T07:43:53.103Z,79.60
2022-07-30T07:44:54.981Z,80.00
2022-07-30T07:45:57.057Z,79.20
2022-07-30T07:46:59.296Z,78.80
2022-07-30T07:48:01.306Z,78.90
2022-07-30T07:49:03.531Z,79.60
2022-07-30T07:50:05.798Z,80.10
2022-07-30T07:51:09.659Z,80.00
2022-07-30T07:52:11.671Z,79.60
2022-07-30T07:53:13.903Z,79.30
2022-07-30T07:54:22.067Z,79.40
2022-07-30T07:55:24.980Z,79.30
2022-07-30T07:56:27.387Z,79.20
2022-07-30T07:57:29.727Z,79.70
2022-07-30T07:58:33.240Z,79.20
2022-07-30T07:59:40.012Z,78.50
2022-07-30T08:00:42.984Z,78.50
2022-07-30T08:01:46.571Z,78.80
2022-07-30T08:02:49.876Z,78.70
2022-07-30T08:03:52.137Z,77.40
2022-07-30T08:04:54.323Z,75.20
2022-07-30T08:06:05.431Z,74.60
2022-07-30T08:07:08.409Z,74.20
2022-07-30T08:08:10.140Z,72.40
2022-07-30T08:09:12.097Z,71.70
2022-07-30T08:10:15.974Z,71.00
2022-07-30T08:11:17.946Z,70.60
2022-07-30T08:12:19.709Z,70.50
2022-07-30T08:13:52.050Z,68.70
2022-07-30T08:14:43.392Z,68.10
2022-07-30T08:15:45.833Z,64.50
2022-07-30T08:16:47.751Z,62.40
2022-07-30T08:17:49.803Z,60.50
2022-07-30T08:18:51.591Z,59.60
2022-07-30T08:19:53.487Z,59.80
2022-07-30T08:20:55.341Z,59.90
2022-07-30T08:21:59.630Z,59.80
2022-07-30T08:23:02.149Z,59.70
2022-07-30T08:24:05.876Z,58.60
2022-07-30T08:25:08.453Z,57.80
2022-07-30T08:26:10.259Z,57.40
2022-07-30T08:27:12.002Z,57.80
2022-07-30T08:28:36.317Z,57.60
2022-07-30T08:29:36.231Z,56.30
2022-07-30T08:30:38.371Z,55.20
2022-07-30T08:31:40.353Z,54.70
2022-07-30T08:32:42.575Z,54.30
2022-07-30T08:33:44.665Z,52.60
2022-07-30T08:34:46.629Z,51.60
2022-07-30T08:35:55.573Z,51.50
2022-07-30T08:37:01.240Z,52.40
2022-07-30T08:38:03.180Z,53.90
2022-07-30T08:39:05.588Z,54.10
2022-07-30T08:40:08.731Z,53.80
2022-07-30T08:41:11.571Z,53.40
2022-07-30T08:42:14.658Z,53.80
2022-07-30T08:43:17.452Z,54.10
2022-07-30T08:44:21.775Z,54.30
2022-07-30T08:45:34.627Z,54.80
2022-07-30T08:46:46.271Z,54.00
2022-07-30T08:47:52.263Z,53.70
2022-07-30T08:48:54.872Z,53.90
2022-07-30T08:50:01.744Z,54.20
2022-07-30T08:51:04.003Z,54.60
2022-07-30T08:52:09.051Z,54.60
2022-07-30T08:53:11.054Z,54.70
2022-07-30T08:54:13.749Z,54.70
2022-07-30T08:55:16.880Z,54.40
2022-07-30T08:56:18.936Z,54.30
2022-07-30T08:57:21.284Z,54.10
2022-07-30T08:58:31.025Z,54.00
2022-07-30T08:59:59.882Z,54.30
2022-07-30T09:02:02.718Z,54.40
2022-07-30T09:03:05.582Z,54.80
2022-07-30T09:04:07.502Z,54.60
2022-07-30T09:05:11.256Z,53.90
2022-07-30T09:06:13.510Z,53.50
2022-07-30T09:07:15.474Z,53.50
2022-07-30T09:08:17.812Z,53.60
2022-07-30T09:09:21.069Z,54.00
2022-07-30T09:10:24.730Z,54.50
2022-07-30T09:11:26.942Z,54.90
2022-07-30T09:12:45.460Z,54.70
2022-07-30T09:13:47.285Z,54.50
2022-07-30T09:15:07.516Z,54.50
2022-07-30T09:16:22.896Z,54.80
2022-07-30T09:17:24.740Z,55.10
2022-07-30T09:18:35.073Z,55.90
2022-07-30T09:19:36.938Z,55.40
2022-07-30T09:20:38.964Z,54.90
2022-07-30T09:21:41.735Z,54.70
2022-07-30T09:22:46.877Z,54.40
2022-07-30T09:24:02.299Z,54.70
2022-07-30T09:25:04.751Z,55.50
2022-07-30T09:26:06.576Z,55.70
2022-07-30T09:27:10.094Z,55.10
2022-07-30T09:28:15.747Z,54.80
2022-07-30T09:29:21.902Z,54.50
2022-07-30T09:30:24.083Z,54.00
2022-07-30T09:31:26.141Z,53.60
2022-07-30T09:32:54.377Z,53.50
2022-07-30T09:33:56.210Z,53.20
2022-07-30T09:35:12.620Z,53.10
2022-07-30T09:36:17.405Z,53.20
2022-07-30T09:37:19.748Z,53.20
2022-07-30T09:38:27.353Z,53.40
2022-07-30T09:39:39.925Z,53.60
2022-07-30T09:40:51.384Z,54.10
2022-07-30T09:42:00.887Z,53.40
2022-07-30T09:43:08.737Z,53.90
2022-07-30T09:44:10.795Z,54.20
2022-07-30T09:45:14.986Z,53.90
2022-07-30T09:46:17.955Z,54.60
2022-07-30T09:47:33.566Z,55.00
2022-07-30T09:48:35.815Z,54.80
2022-07-30T09:49:37.883Z,54.70
2022-07-30T09:50:50.230Z,54.90
2022-07-30T09:51:56.952Z,54.90
2022-07-30T09:53:31.525Z,55.20
2022-07-30T09:54:51.031Z,55.70
2022-07-30T09:55:54.316Z,55.20
2022-07-30T09:57:15.942Z,54.90
2022-07-30T09:58:45.531Z,54.30
2022-07-30T09:59:47.973Z,53.70
2022-07-30T10:00:57.857Z,53.30
2022-07-30T10:02:03.806Z,53.10
2022-07-30T10:03:32.902Z,53.10
2022-07-30T10:04:36.630Z,53.40
2022-07-30T10:05:59.774Z,53.80
2022-07-30T10:07:02.249Z,54.40
2022-07-30T10:08:09.427Z,53.50
2022-07-30T10:09:37.374Z,53.90
2022-07-30T10:10:46.914Z,53.20
2022-07-30T10:11:49.281Z,53.30
2022-07-30T10:12:54.626Z,52.70
2022-07-30T10:13:59.279Z,52.20
2022-07-30T10:15:06.229Z,52.40
2022-07-30T10:16:10.628Z,52.20
2022-07-30T10:17:13.016Z,53.00
2022-07-30T10:18:16.038Z,52.50
2022-07-30T10:19:23.529Z,52.20
2022-07-30T10:20:43.231Z,52.20
2022-07-30T10:21:45.618Z,51.90
2022-07-30T10:22:50.140Z,51.40
2022-07-30T10:23:53.877Z,51.40
2022-07-30T10:24:55.966Z,51.30
2022-07-30T10:26:00.802Z,50.60
2022-07-30T10:27:08.790Z,50.40
2022-07-30T10:28:11.663Z,49.70
2022-07-30T10:29:17.571Z,49.50
2022-07-30T10:30:24.841Z,50.00
2022-07-30T10:31:48.720Z,49.70
2022-07-30T10:32:52.899Z,49.60
2022-07-30T10:33:56.511Z,49.50
2022-07-30T10:34:59.623Z,49.50
2022-07-30T10:36:02.726Z,49.80
2022-07-30T10:37:07.499Z,49.60
2022-07-30T10:38:13.693Z,49.80
2022-07-30T10:39:21.049Z,49.50
2022-07-30T10:40:31.047Z,49.30
2022-07-30T10:42:10.951Z,49.20
2022-07-30T10:43:31.795Z,48.30
2022-07-30T10:45:17.660Z,48.60
2022-07-30T10:46:38.682Z,49.10
2022-07-30T10:47:48.707Z,48.80
2022-07-30T10:48:51.924Z,49.20
2022-07-30T10:50:12.092Z,48.80
2022-07-30T10:51:25.265Z,47.90
2022-07-30T10:52:50.747Z,47.70
2022-07-30T10:53:52.691Z,47.30
2022-07-30T10:54:54.704Z,47.30
2022-07-30T10:56:25.816Z,47.50
2022-07-30T10:57:32.114Z,47.80
2022-07-30T10:59:03.103Z,48.00
2022-07-30T11:00:05.193Z,47.90
2022-07-30T11:01:18.382Z,47.00
2022-07-30T11:02:21.418Z,46.30
2022-07-30T11:03:41.741Z,46.10
2022-07-30T11:04:47.028Z,46.40
2022-07-30T11:05:51.486Z,46.60
2022-07-30T11:07:30.147Z,45.80
2022-07-30T11:08:43.030Z,45.40
2022-07-30T11:09:45.270Z,45.00
2022-07-30T11:12:00.962Z,44.70
2022-07-30T11:12:54.699Z,44.90
2022-07-30T11:13:57.501Z,44.60
2022-07-30T11:15:06.620Z,44.70
2022-07-30T11:16:09.727Z,45.30
2022-07-30T11:17:18.350Z,44.60
2022-07-30T11:18:20.607Z,43.60
2022-07-30T11:19:54.875Z,44.90
2022-07-30T11:21:22.675Z,44.40
2022-07-30T11:22:29.765Z,44.50
2022-07-30T11:23:40.002Z,44.30
2022-07-30T11:24:43.725Z,44.30
2022-07-30T11:25:51.863Z,44.10
2022-07-30T11:26:56.781Z,43.50
2022-07-30T11:28:00.953Z,43.10
2022-07-30T11:29:04.237Z,44.00
2022-07-30T11:30:17.005Z,44.40
2022-07-30T11:31:56.686Z,43.80
2022-07-30T11:32:56.248Z,42.80
2022-07-30T11:34:18.447Z,42.60
2022-07-30T11:35:23.246Z,42.00
2022-07-30T11:36:25.336Z,42.60
2022-07-30T11:37:32.499Z,43.40
2022-07-30T11:39:06.887Z,43.30
2022-07-30T11:40:10.629Z,43.50
2022-07-30T11:41:12.902Z,43.40
2022-07-30T11:42:31.102Z,43.40
2022-07-30T11:43:37.030Z,43.20
2022-07-30T11:44:39.116Z,43.80
2022-07-30T11:45:41.560Z,43.60
2022-07-30T11:46:49.517Z,43.60
2022-07-30T11:47:57.105Z,43.20
2022-07-30T11:49:08.754Z,42.90
2022-07-30T11:50:23.780Z,42.80
2022-07-30T11:51:26.260Z,42.30
2022-07-30T11:52:28.451Z,42.30
2022-07-30T11:53:30.785Z,42.50
2022-07-30T11:54:32.691Z,42.30
2022-07-30T11:55:40.175Z,42.70
2022-07-30T11:56:49.602Z,43.20
2022-07-30T11:57:52.459Z,43.10
2022-07-30T11:59:04.666Z,43.20
2022-07-30T12:00:07.292Z,43.40
2022-07-30T12:01:15.420Z,42.90
2022-07-30T12:02:17.344Z,42.80
2022-07-30T12:03:21.905Z,43.40
2022-07-30T12:04:24.708Z,43.40
2022-07-30T12:05:27.499Z,43.30
2022-07-30T12:06:31.971Z,43.10
2022-07-30T12:07:33.899Z,43.80
2022-07-30T12:08:43.140Z,43.50
2022-07-30T12:09:45.041Z,43.40
2022-07-30T12:11:01.317Z,42.90
2022-07-30T12:12:21.954Z,43.20
2022-07-30T12:13:24.067Z,43.40
2022-07-30T12:14:45.995Z,43.10
2022-07-30T12:15:49.058Z,43.00
2022-07-30T12:16:53.202Z,43.00
2022-07-30T12:18:10.972Z,42.70
2022-07-30T12:19:17.077Z,42.60
2022-07-30T12:20:20.112Z,42.60
2022-07-30T12:21:24.673Z,42.20
2022-07-30T12:22:26.489Z,41.80
2022-07-30T12:23:29.634Z,41.40
2022-07-30T12:24:31.587Z,41.50
2022-07-30T12:25:39.422Z,41.60
2022-07-30T12:26:53.265Z,41.60
2022-07-30T12:27:55.269Z,42.00
2022-07-30T12:28:59.546Z,42.20
2022-07-30T12:30:01.924Z,42.10
2022-07-30T12:31:04.392Z,41.90
2022-07-30T12:32:06.316Z,41.70
2022-07-30T12:33:08.192Z,41.80
2022-07-30T12:34:21.146Z,42.20
2022-07-30T12:35:23.399Z,42.20
2022-07-30T12:36:35.526Z,41.70
2022-07-30T12:37:37.929Z,41.80
2022-07-30T12:38:49.289Z,42.30
2022-07-30T12:40:15.005Z,42.00
2022-07-30T12:41:17.428Z,41.70
2022-07-30T12:42:20.331Z,40.60
2022-07-30T12:43:41.957Z,39.50
2022-07-30T12:44:45.044Z,37.00
2022-07-30T12:45:50.517Z,36.60
2022-07-30T12:46:55.831Z,36.00
2022-07-30T12:47:58.665Z,35.10
2022-07-30T12:49:08.894Z,34.60
2022-07-30T12:50:24.035Z,34.20
2022-07-30T12:51:29.079Z,33.50
2022-07-30T12:52:35.121Z,32.90
2022-07-30T12:53:37.127Z,33.00
2022-07-30T12:54:38.867Z,32.80
2022-07-30T12:55:40.898Z,31.60
2022-07-30T12:57:00.660Z,30.90
2022-07-30T12:58:08.858Z,31.00
2022-07-30T12:59:22.005Z,30.40
2022-07-30T13:00:26.867Z,29.80
2022-07-30T13:01:47.240Z,30.10
2022-07-30T13:02:49.323Z,29.70
2022-07-30T13:03:51.295Z,29.90
2022-07-30T13:05:10.408Z,29.60
2022-07-30T13:06:19.467Z,29.40
2022-07-30T13:07:21.308Z,29.40
2022-07-30T13:08:51.910Z,29.40
2022-07-30T13:10:13.430Z,28.80
2022-07-30T13:11:16.927Z,29.80
2022-07-30T13:12:18.668Z,31.10
2022-07-30T13:13:20.596Z,32.30
2022-07-30T13:14:26.358Z,33.50
2022-07-30T13:15:28.865Z,33.90
2022-07-30T13:16:35.088Z,34.30
2022-07-30T13:17:38.018Z,35.30
2022-07-30T13:18:40.700Z,34.80
2022-07-30T13:19:42.468Z,33.50
2022-07-30T13:20:44.351Z,32.70
2022-07-30T13:21:49.438Z,32.70
2022-07-30T13:22:52.059Z,32.60
2022-07-30T13:23:54.156Z,31.90
2022-07-30T13:24:56.077Z,31.10
2022-07-30T13:25:58.450Z,30.00
2022-07-30T13:27:00.338Z,29.80
2022-07-30T13:28:02.449Z,29.40
2022-07-30T13:29:05.018Z,29.30
2022-07-30T13:30:07.687Z,28.80
2022-07-30T13:31:10.218Z,28.70
2022-07-30T13:32:12.122Z,28.60
2022-07-30T13:33:14.440Z,28.20
2022-07-30T13:34:16.327Z,28.20
2022-07-30T13:35:18.092Z,27.30
2022-07-30T13:36:20.398Z,27.20
2022-07-30T13:37:23.703Z,26.60
2022-07-30T13:38:39.459Z,26.20
2022-07-30T13:39:41.366Z,27.00
2022-07-30T13:40:43.343Z,27.80
2022-07-30T13:41:45.057Z,28.60
2022-07-30T13:42:46.913Z,28.60
2022-07-30T13:43:48.826Z,28.70
2022-07-30T13:44:51.132Z,28.80
2022-07-30T13:45:53.902Z,28.90
2022-07-30T13:47:02.245Z,29.30
2022-07-30T13:48:04.659Z,29.40
2022-07-30T13:49:06.435Z,29.30
2022-07-30T13:50:08.462Z,29.40
2022-07-30T13:51:10.461Z,29.50
2022-07-30T13:52:12.198Z,29.20
2022-07-30T13:53:14.375Z,28.80
2022-07-30T13:54:16.486Z,28.50
2022-07-30T13:55:18.475Z,28.40
2022-07-30T13:56:20.210Z,28.40
2022-07-30T13:57:22.527Z,28.40
2022-07-30T13:58:24.344Z,28.80
2022-07-30T13:59:26.275Z,28.70
2022-07-30T14:00:32.485Z,28.70
2022-07-30T14:01:36.034Z,28.60
2022-07-30T14:02:37.862Z,28.70
2022-07-30T14:03:39.682Z,29.00
2022-07-30T14:04:41.507Z,28.80
2022-07-30T14:05:44.010Z,28.80
2022-07-30T14:06:45.993Z,28.80